Time;durP1;ratioP1;P1;durP2;ratioP2;P2;SDS_P1;SDS_P2;PMS_P1;PMS_P2;Temp;Humidity;BMP_temperature;BMP_pressure;BME280_temperature;BME280_humidity;BME280_pressure;Samples;Min_cycle;Max_cycle;Signal;HPM_P1;HPM_P2
2024/01/21 00:01:15;;;;;;;0.00;0.00;;;-0.40;80.20;;;;;;5006847;28;20026;-63
2024/01/21 00:03:41;;;;;;;0.00;0.00;;;-0.50;80.60;;;;;;5006172;28;20057;-62
2024/01/21 00:06:06;;;;;;;0.00;0.00;;;-0.60;80.80;;;;;;5025667;28;20038;-62
2024/01/21 00:08:32;;;;;;;0.00;0.00;;;-0.60;81.30;;;;;;5007075;28;20021;-63
2024/01/21 00:10:57;;;;;;;0.00;0.00;;;-0.70;81.70;;;;;;5008010;28;20097;-63
2024/01/21 00:13:23;;;;;;;0.00;0.00;;;-0.70;82.10;;;;;;5006767;28;20026;-63
2024/01/21 00:15:49;;;;;;;0.07;0.07;;;-0.70;82.50;;;;;;5006447;28;20033;-64
2024/01/21 00:18:15;;;;;;;0.00;0.00;;;-0.80;82.90;;;;;;5006952;28;20040;-64
2024/01/21 00:20:41;;;;;;;0.00;0.00;;;-0.80;82.80;;;;;;5006580;28;20040;-63
2024/01/21 00:23:07;;;;;;;0.00;0.00;;;-0.80;82.80;;;;;;5008045;28;20692;-62
2024/01/21 00:25:33;;;;;;;0.00;0.00;;;-0.80;82.90;;;;;;5007993;28;20041;-63
2024/01/21 00:27:58;;;;;;;0.00;0.00;;;-0.80;82.90;;;;;;5007836;28;20268;-63
2024/01/21 00:30:24;;;;;;;0.00;0.00;;;-0.90;83.30;;;;;;5006874;28;20097;-62
2024/01/21 00:32:49;;;;;;;0.00;0.00;;;-0.90;83.50;;;;;;5005541;28;20033;-63
2024/01/21 00:35:15;;;;;;;0.00;0.00;;;-0.90;83.60;;;;;;5006976;28;20026;-64
2024/01/21 00:37:41;;;;;;;0.00;0.00;;;-1.00;83.80;;;;;;5007384;28;20028;-63
2024/01/21 00:40:08;;;;;;;0.00;0.00;;;-1.00;83.50;;;;;;5006138;28;20172;-63
2024/01/21 00:42:34;;;;;;;0.00;0.00;;;-1.00;83.80;;;;;;5006353;28;20037;-63
2024/01/21 00:45:00;;;;;;;0.00;0.00;;;-1.00;84.50;;;;;;5005920;28;20025;-63
2024/01/21 00:47:26;;;;;;;0.00;0.00;;;-1.00;84.80;;;;;;5004945;28;20033;-64
2024/01/21 00:49:52;;;;;;;0.00;0.00;;;-1.10;85.30;;;;;;5004788;28;20029;-63
2024/01/21 00:52:17;;;;;;;0.00;0.00;;;-1.10;85.90;;;;;;5006581;28;20034;-62
2024/01/21 00:54:43;;;;;;;0.00;0.00;;;-1.10;85.90;;;;;;5007465;28;20029;-62
2024/01/21 00:57:08;;;;;;;0.00;0.00;;;-1.10;86.40;;;;;;5006741;28;20025;-64
2024/01/21 00:59:34;;;;;;;0.00;0.00;;;-1.20;87.80;;;;;;5006577;28;20033;-63
2024/01/21 01:01:59;;;;;;;0.00;0.00;;;-1.30;87.80;;;;;;5006305;28;20476;-63
2024/01/21 01:04:25;;;;;;;0.10;0.10;;;-1.30;88.50;;;;;;5006051;28;20675;-63
2024/01/21 01:06:51;;;;;;;0.00;0.00;;;-1.40;88.80;;;;;;5008699;28;20096;-63
2024/01/21 01:09:16;;;;;;;0.00;0.00;;;-1.50;89.60;;;;;;5006812;28;20068;-64
2024/01/21 01:11:42;;;;;;;0.00;0.00;;;-1.50;90.40;;;;;;5021417;28;20018;-63
2024/01/21 01:14:07;;;;;;;0.17;0.17;;;-1.60;90.90;;;;;;5004908;28;20022;-63
2024/01/21 01:16:40;;;;;;;0.00;0.00;;;-1.60;91.40;;;;;;5002477;28;20030;-64
2024/01/21 01:19:06;;;;;;;0.00;0.00;;;-1.70;91.70;;;;;;5007885;28;20122;-63
2024/01/21 01:21:33;;;;;;;0.00;0.00;;;-1.70;91.60;;;;;;5006098;28;20033;-63
2024/01/21 01:23:58;;;;;;;0.00;0.00;;;-1.70;91.60;;;;;;5005432;28;20030;-62
2024/01/21 01:26:24;;;;;;;0.00;0.00;;;-1.70;91.80;;;;;;5006106;28;20041;-64
2024/01/21 01:28:50;;;;;;;0.00;0.00;;;-1.60;92.20;;;;;;5003548;28;20049;-62
2024/01/21 01:31:20;;;;;;;0.00;0.00;;;-1.60;92.30;;;;;;5005222;28;20027;-63
2024/01/21 01:33:46;;;;;;;0.00;0.00;;;-1.60;92.40;;;;;;5004356;28;20114;-63
2024/01/21 01:36:12;;;;;;;0.00;0.00;;;-1.60;92.20;;;;;;5005509;28;20101;-63
2024/01/21 01:38:38;;;;;;;0.00;0.00;;;-1.40;91.60;;;;;;5005080;28;20085;-63
2024/01/21 01:41:04;;;;;;;0.00;0.00;;;-1.30;91.50;;;;;;5002654;28;20025;-63
2024/01/21 01:43:30;;;;;;;0.00;0.00;;;-1.20;91.00;;;;;;5004724;28;20669;-63
2024/01/21 01:45:59;;;;;;;0.00;0.00;;;-1.10;90.80;;;;;;5004394;28;20481;-63
2024/01/21 01:48:25;;;;;;;0.00;0.00;;;-1.10;90.60;;;;;;5002831;28;20024;-63
2024/01/21 01:50:51;;;;;;;0.00;0.00;;;-1.10;90.60;;;;;;5004743;28;20022;-63
2024/01/21 01:53:17;;;;;;;0.00;0.00;;;-1.20;90.70;;;;;;5002416;28;20081;-63
2024/01/21 01:55:44;;;;;;;0.00;0.00;;;-1.10;90.80;;;;;;5005835;28;20041;-63
2024/01/21 01:58:14;;;;;;;0.00;0.00;;;-1.20;90.80;;;;;;5004378;28;20044;-63
2024/01/21 02:00:41;;;;;;;0.00;0.00;;;-1.10;91.10;;;;;;5005087;28;20113;-63
2024/01/21 02:03:08;;;;;;;0.00;0.00;;;-1.10;91.20;;;;;;5005011;28;20130;-64
2024/01/21 02:05:34;;;;;;;0.00;0.00;;;-1.30;91.70;;;;;;5003324;28;20471;-63
2024/01/21 02:07:59;;;;;;;0.00;0.00;;;-1.40;92.30;;;;;;5003590;28;20034;-63
2024/01/21 02:10:27;;;;;;;0.00;0.00;;;-1.60;92.80;;;;;;5004412;28;20030;-62
2024/01/21 02:12:53;;;;;;;0.00;0.00;;;-1.70;93.30;;;;;;5004516;28;20013;-64
2024/01/21 02:15:19;;;;;;;0.00;0.00;;;-1.70;94.30;;;;;;5001761;28;20056;-64
2024/01/21 02:17:45;;;;;;;0.00;0.00;;;-1.80;94.90;;;;;;5000359;28;20053;-63
2024/01/21 02:20:11;;;;;;;0.00;0.00;;;-1.90;95.50;;;;;;5004678;28;20827;-65
2024/01/21 02:22:41;;;;;;;0.00;0.00;;;-1.90;95.60;;;;;;5003802;28;20022;-65
2024/01/21 02:25:07;;;;;;;0.00;0.00;;;-2.00;96.40;;;;;;5005089;28;20021;-66
2024/01/21 02:27:34;;;;;;;0.00;0.00;;;-2.00;96.80;;;;;;5001544;28;20026;-66
2024/01/21 02:30:00;;;;;;;0.00;0.00;;;-2.00;96.60;;;;;;5003574;28;20087;-66
2024/01/21 02:32:26;;;;;;;0.00;0.00;;;-2.10;96.90;;;;;;5003277;28;20442;-65
2024/01/21 02:34:52;;;;;;;0.00;0.00;;;-2.10;97.60;;;;;;5000400;28;20026;-65
2024/01/21 02:37:18;;;;;;;0.00;0.00;;;-2.10;97.80;;;;;;4997781;28;20550;-66
2024/01/21 02:39:44;;;;;;;0.00;0.00;;;-2.10;97.90;;;;;;5003617;28;20140;-65
2024/01/21 02:42:10;;;;;;;0.00;0.00;;;-2.10;98.00;;;;;;5003778;28;20036;-65
2024/01/21 02:44:35;;;;;;;0.00;0.00;;;-2.20;98.40;;;;;;5002103;28;20037;-66
2024/01/21 02:47:01;;;;;;;0.00;0.00;;;-2.20;98.10;;;;;;5003869;28;20381;-66
2024/01/21 02:49:28;;;;;;;0.00;0.00;;;-2.10;98.50;;;;;;5000337;28;20031;-66
2024/01/21 02:51:58;;;;;;;0.00;0.00;;;-2.10;99.80;;;;;;5003794;28;20024;-65
2024/01/21 02:54:24;;;;;;;0.00;0.00;;;-2.20;99.90;;;;;;5000833;28;20108;-65
2024/01/21 02:56:50;;;;;;;0.00;0.00;;;-2.30;99.90;;;;;;5002357;28;20050;-66
2024/01/21 02:59:16;;;;;;;0.00;0.00;;;-2.30;99.90;;;;;;5025857;28;20689;-66
2024/01/21 03:01:42;;;;;;;0.00;0.00;;;-2.30;99.90;;;;;;5003594;28;20026;-65
2024/01/21 03:04:13;;;;;;;0.00;0.00;;;-2.40;99.90;;;;;;5004162;28;20089;-66
2024/01/21 03:06:40;;;;;;;0.00;0.00;;;-2.40;99.90;;;;;;5004588;28;20482;-66
2024/01/21 03:09:06;;;;;;;0.00;0.00;;;-2.40;99.90;;;;;;5004744;28;20053;-66
2024/01/21 03:11:32;;;;;;;0.00;0.00;;;-2.40;99.90;;;;;;5004176;28;20099;-65
2024/01/21 03:13:58;;;;;;;0.00;0.00;;;-2.40;99.90;;;;;;5003734;28;20276;-65
2024/01/21 03:16:24;;;;;;;0.00;0.00;;;-2.40;99.90;;;;;;5003584;28;20038;-66
2024/01/21 03:18:50;;;;;;;0.00;0.00;;;-2.40;99.90;;;;;;5003999;28;20076;-66
2024/01/21 03:21:15;;;;;;;0.00;0.00;;;-2.50;99.90;;;;;;5004058;28;20154;-66
2024/01/21 03:23:41;;;;;;;0.00;0.00;;;-2.50;99.90;;;;;;5004001;28;20076;-66
2024/01/21 03:26:07;;;;;;;0.00;0.00;;;-2.40;99.90;;;;;;5004004;28;20037;-66
2024/01/21 03:28:33;;;;;;;0.00;0.00;;;-2.50;99.90;;;;;;5005343;28;20067;-66
2024/01/21 03:31:00;;;;;;;0.00;0.00;;;-2.50;99.90;;;;;;5004351;28;20030;-66
2024/01/21 03:33:26;;;;;;;0.00;0.00;;;-2.50;99.90;;;;;;5004029;28;20255;-63
2024/01/21 03:35:52;;;;;;;0.00;0.00;;;-2.50;99.90;;;;;;5009004;28;20504;-63
2024/01/21 03:38:17;;;;;;;0.00;0.00;;;-2.60;99.90;;;;;;5009676;28;20030;-62
2024/01/21 03:40:43;;;;;;;0.00;0.00;;;-2.60;99.90;;;;;;5009019;28;20040;-63
2024/01/21 03:43:09;;;;;;;0.00;0.00;;;-2.60;99.90;;;;;;5008115;28;20045;-65
2024/01/21 03:45:34;;;;;;;0.00;0.00;;;-2.60;99.90;;;;;;5009735;28;20493;-64
2024/01/21 03:48:00;;;;;;;0.00;0.00;;;-2.60;99.90;;;;;;5009529;28;20036;-63
2024/01/21 03:50:26;;;;;;;0.00;0.00;;;-2.60;99.90;;;;;;5009419;28;20460;-63
2024/01/21 03:52:51;;;;;;;0.00;0.00;;;-2.60;99.90;;;;;;5009171;28;20025;-62
2024/01/21 03:55:18;;;;;;;0.00;0.00;;;-2.60;99.90;;;;;;5006799;28;20026;-63
2024/01/21 03:57:44;;;;;;;;;;;-2.50;99.90;;;;;;5008639;28;20029;-65
2024/01/21 04:00:11;;;;;;;0.00;0.00;;;-2.60;99.90;;;;;;5005086;28;19905;-62
2024/01/21 04:02:36;;;;;;;0.00;0.00;;;-2.70;99.90;;;;;;5007318;28;20033;-64
2024/01/21 04:05:03;;;;;;;0.00;0.00;;;-2.70;99.90;;;;;;5009292;28;20030;-62
2024/01/21 04:07:30;;;;;;;0.00;0.00;;;-2.70;99.90;;;;;;5006519;28;20037;-64
2024/01/21 04:09:55;;;;;;;0.00;0.00;;;-2.70;99.90;;;;;;5007040;28;20193;-63
2024/01/21 04:12:21;;;;;;;0.00;0.00;;;-2.70;99.90;;;;;;5006864;28;20118;-63
2024/01/21 04:14:47;;;;;;;0.00;0.00;;;-2.70;99.90;;;;;;5008519;28;20474;-64
2024/01/21 04:17:12;;;;;;;0.00;0.00;;;-2.70;99.90;;;;;;5007469;28;20105;-63
2024/01/21 04:19:38;;;;;;;0.00;0.00;;;-2.70;99.90;;;;;;5006973;28;20033;-65
2024/01/21 04:22:05;;;;;;;0.00;0.00;;;-2.70;99.90;;;;;;5007287;28;21365;-63
2024/01/21 04:24:30;;;;;;;0.00;0.00;;;-2.70;99.90;;;;;;5007259;28;20628;-63
2024/01/21 04:26:56;;;;;;;0.00;0.00;;;-2.70;99.90;;;;;;5006623;28;20037;-63
2024/01/21 04:29:22;;;;;;;0.00;0.00;;;-2.80;99.90;;;;;;5007990;28;20017;-63
2024/01/21 04:31:47;;;;;;;0.00;0.00;;;-2.90;99.90;;;;;;5006651;28;20028;-62
2024/01/21 04:34:13;;;;;;;0.00;0.00;;;-2.90;99.90;;;;;;5006481;28;20115;-63
2024/01/21 04:36:39;;;;;;;0.00;0.00;;;-2.90;99.90;;;;;;5006694;28;20026;-63
2024/01/21 04:39:06;;;;;;;0.00;0.00;;;-2.90;99.90;;;;;;5007795;28;20099;-63
2024/01/21 04:41:32;;;;;;;0.00;0.00;;;-2.90;99.90;;;;;;5008496;28;20477;-65
2024/01/21 04:43:58;;;;;;;0.00;0.00;;;-3.00;99.90;;;;;;5005535;28;20184;-63
2024/01/21 04:46:23;;;;;;;0.00;0.00;;;-2.90;99.90;;;;;;5006963;28;20127;-63
2024/01/21 04:48:49;;;;;;;0.00;0.00;;;-2.90;99.90;;;;;;5005649;28;20096;-63
2024/01/21 04:51:15;;;;;;;0.00;0.00;;;-2.90;99.90;;;;;;5004590;28;20322;-63
2024/01/21 04:53:41;;;;;;;0.00;0.00;;;-2.90;99.90;;;;;;5005836;28;20022;-62
2024/01/21 04:56:06;;;;;;;0.00;0.00;;;-2.90;99.90;;;;;;5006308;28;20701;-64
2024/01/21 04:58:33;;;;;;;0.00;0.00;;;-2.90;99.90;;;;;;5033948;28;20045;-63
2024/01/21 05:00:58;;;;;;;0.00;0.00;;;-2.90;99.90;;;;;;5006060;28;20077;-62
2024/01/21 05:03:24;;;;;;;0.00;0.00;;;-2.90;99.90;;;;;;5005745;28;20070;-63
2024/01/21 05:05:50;;;;;;;0.00;0.00;;;-2.90;99.50;;;;;;5008964;28;20105;-63
2024/01/21 05:08:15;;;;;;;0.00;0.00;;;-2.90;99.10;;;;;;5007486;28;20033;-63
2024/01/21 05:10:41;;;;;;;0.00;0.00;;;-2.90;98.80;;;;;;5007863;28;20265;-63
2024/01/21 05:13:07;;;;;;;0.00;0.00;;;-2.90;98.70;;;;;;5023040;28;20030;-63
2024/01/21 05:15:33;;;;;;;0.00;0.00;;;-2.90;98.50;;;;;;5006153;28;20129;-63
2024/01/21 05:17:58;;;;;;;0.00;0.00;;;-2.90;99.30;;;;;;5005750;28;20101;-63
2024/01/21 05:20:24;;;;;;;0.00;0.00;;;-2.90;99.40;;;;;;5007106;28;20030;-63
2024/01/21 05:22:54;;;;;;;0.00;0.00;;;-2.90;99.40;;;;;;5006724;28;20025;-63
2024/01/21 05:25:20;;;;;;;0.00;0.00;;;-2.90;99.60;;;;;;5005885;28;20058;-63
2024/01/21 05:27:45;;;;;;;0.00;0.00;;;-2.90;99.60;;;;;;5006406;28;20025;-64
2024/01/21 05:30:12;;;;;;;0.00;0.00;;;-2.90;99.30;;;;;;5007013;28;20014;-62
2024/01/21 05:32:39;;;;;;;0.00;0.00;;;-2.90;99.10;;;;;;5005655;28;20105;-63
2024/01/21 05:35:06;;;;;;;0.00;0.00;;;-2.90;99.20;;;;;;5006195;28;20033;-63
2024/01/21 05:37:32;;;;;;;;;;;-2.90;99.90;;;;;;5006476;28;20080;-63
2024/01/21 05:39:57;;;;;;;0.00;0.00;;;-2.90;99.90;;;;;;5006221;28;19919;-63
2024/01/21 05:42:23;;;;;;;0.00;0.00;;;-3.00;99.90;;;;;;5005001;28;20029;-62
2024/01/21 05:44:48;;;;;;;0.00;0.00;;;-3.00;99.90;;;;;;5003910;28;20072;-64
2024/01/21 05:47:14;;;;;;;0.00;0.00;;;-3.00;99.90;;;;;;5004439;28;20037;-65
2024/01/21 05:49:39;;;;;;;0.00;0.00;;;-3.10;99.90;;;;;;5005448;28;20026;-63
2024/01/21 05:52:05;;;;;;;0.00;0.00;;;-3.10;99.90;;;;;;5005962;28;20490;-65
2024/01/21 05:54:31;;;;;;;0.00;0.00;;;-3.10;99.90;;;;;;5006385;28;20064;-63
2024/01/21 05:56:57;;;;;;;0.00;0.00;;;-3.10;99.90;;;;;;5007043;28;20026;-63
2024/01/21 05:59:22;;;;;;;0.00;0.00;;;-3.10;99.90;;;;;;5004593;28;20481;-64
2024/01/21 06:01:49;;;;;;;0.00;0.00;;;-3.20;99.90;;;;;;5004973;28;20574;-67
2024/01/21 06:04:16;;;;;;;0.00;0.00;;;-3.20;99.90;;;;;;5005579;28;20105;-68
2024/01/21 06:06:41;;;;;;;0.00;0.00;;;-3.20;99.90;;;;;;5004617;28;20018;-67
2024/01/21 06:09:07;;;;;;;0.00;0.00;;;-3.20;99.90;;;;;;5021161;28;20076;-67
2024/01/21 06:11:33;;;;;;;0.00;0.00;;;-3.20;99.90;;;;;;5005889;28;20135;-69
2024/01/21 06:13:58;;;;;;;0.00;0.00;;;-3.30;99.90;;;;;;5004414;28;20121;-67
2024/01/21 06:16:24;;;;;;;0.00;0.00;;;-3.30;99.90;;;;;;5005580;28;20065;-67
2024/01/21 06:18:49;;;;;;;0.00;0.00;;;-3.30;99.90;;;;;;5006850;28;20030;-68
2024/01/21 06:21:16;;;;;;;0.00;0.00;;;-3.40;99.90;;;;;;5006902;28;20073;-67
2024/01/21 06:23:42;;;;;;;0.00;0.00;;;-3.40;99.90;;;;;;5005312;28;20032;-67
2024/01/21 06:26:19;;;;;;;0.00;0.00;;;-3.40;99.90;;;;;;5005161;28;20096;-67
2024/01/21 06:28:49;;;;;;;0.00;0.00;;;-3.40;99.90;;;;;;5002534;28;20018;-67
2024/01/21 06:31:15;;;;;;;0.00;0.00;;;-3.40;99.90;;;;;;5005982;28;20049;-67
2024/01/21 06:33:41;;;;;;;0.00;0.00;;;-3.50;99.90;;;;;;5004137;28;20136;-67
2024/01/21 06:36:07;;;;;;;0.00;0.00;;;-3.50;99.90;;;;;;5004343;28;20087;-67
2024/01/21 06:38:33;;;;;;;0.00;0.00;;;-3.50;99.90;;;;;;5006288;28;20681;-67
2024/01/21 06:40:58;;;;;;;0.00;0.00;;;-3.40;99.90;;;;;;5004729;28;20026;-68
2024/01/21 06:43:24;;;;;;;0.00;0.00;;;-3.20;99.90;;;;;;5004217;28;20113;-68
2024/01/21 06:45:50;;;;;;;0.00;0.00;;;-2.80;99.90;;;;;;5005522;28;20021;-67
2024/01/21 06:48:15;;;;;;;0.00;0.00;;;-2.30;99.90;;;;;;5004396;28;20026;-67
2024/01/21 06:50:41;;;;;;;0.00;0.00;;;-1.80;99.90;;;;;;5005376;28;20630;-67
2024/01/21 06:53:07;;;;;;;0.00;0.00;;;-1.10;99.90;;;;;;5004134;28;20734;-67
2024/01/21 06:55:32;;;;;;;0.00;0.00;;;-0.50;99.90;;;;;;5006009;28;20037;-68
2024/01/21 06:57:59;;;;;;;0.00;0.00;;;0.10;99.90;;;;;;5004790;28;20026;-67
2024/01/21 07:00:25;;;;;;;0.00;0.00;;;0.60;98.90;;;;;;5004407;28;20102;-67
2024/01/21 07:02:50;;;;;;;0.00;0.00;;;1.20;97.90;;;;;;5005205;28;20112;-68
2024/01/21 07:05:16;;;;;;;0.00;0.00;;;1.80;96.60;;;;;;5004070;28;20060;-67
2024/01/21 07:07:42;;;;;;;0.00;0.00;;;2.10;95.00;;;;;;5005876;28;20500;-68
2024/01/21 07:10:08;;;;;;;0.00;0.00;;;2.50;94.30;;;;;;5007148;28;20029;-67
2024/01/21 07:12:34;;;;;;;0.00;0.00;;;2.90;93.20;;;;;;5007768;28;20387;-63
2024/01/21 07:15:00;;;;;;;;;;;3.50;92.30;;;;;;5008154;28;20025;-63
2024/01/21 07:17:25;;;;;;;0.00;0.00;;;4.40;90.70;;;;;;5005863;28;19959;-62
2024/01/21 07:19:53;;;;;;;0.10;0.03;;;5.50;87.00;;;;;;5006203;28;20018;-66
2024/01/21 07:22:20;;;;;;;0.00;0.00;;;6.50;81.60;;;;;;5006883;28;20249;-64
2024/01/21 07:24:46;;;;;;;0.00;0.00;;;7.30;76.70;;;;;;5008434;28;20454;-64
2024/01/21 07:27:12;;;;;;;0.00;0.00;;;7.80;72.20;;;;;;5008349;28;20091;-64
2024/01/21 07:29:38;;;;;;;0.00;0.00;;;7.60;69.90;;;;;;5008485;28;20121;-63
2024/01/21 07:32:04;;;;;;;0.00;0.00;;;7.90;69.20;;;;;;5006878;28;20121;-65
2024/01/21 07:34:29;;;;;;;0.00;0.00;;;8.10;68.20;;;;;;5008167;28;20265;-64
2024/01/21 07:36:55;;;;;;;0.00;0.00;;;8.40;66.70;;;;;;5007310;28;20658;-65
2024/01/21 07:39:21;;;;;;;0.17;0.13;;;8.90;64.80;;;;;;5008464;28;20045;-63
2024/01/21 07:41:46;;;;;;;0.00;0.00;;;8.60;64.80;;;;;;5034904;28;20105;-63
2024/01/21 07:44:12;;;;;;;0.00;0.00;;;8.20;64.90;;;;;;5007458;28;20029;-64
2024/01/21 07:46:37;;;;;;;0.00;0.00;;;8.20;64.50;;;;;;5007724;28;20537;-63
2024/01/21 07:49:03;;;;;;;0.00;0.00;;;8.50;65.00;;;;;;5036230;28;20095;-63
2024/01/21 07:51:29;;;;;;;0.30;0.30;;;8.40;65.20;;;;;;5007897;28;20746;-64
2024/01/21 07:53:54;;;;;;;0.10;0.10;;;8.20;65.50;;;;;;5008981;28;20624;-64
2024/01/21 07:56:20;;;;;;;0.00;0.00;;;7.10;66.40;;;;;;5022290;28;20018;-63
2024/01/21 07:58:46;;;;;;;0.10;0.10;;;5.40;69.40;;;;;;5006939;28;20030;-64
2024/01/21 08:01:12;;;;;;;0.00;0.00;;;4.50;71.70;;;;;;5009418;28;20079;-63
2024/01/21 08:03:38;;;;;;;0.00;0.00;;;3.80;73.50;;;;;;5008497;28;20470;-63
2024/01/21 08:06:10;;;;;;;0.00;0.00;;;3.60;75.60;;;;;;5008504;28;20080;-63
2024/01/21 08:08:35;;;;;;;0.00;0.00;;;3.50;76.60;;;;;;5007487;28;20030;-63
2024/01/21 08:11:01;;;;;;;0.00;0.00;;;3.50;77.00;;;;;;5007095;28;20079;-63
2024/01/21 08:13:27;;;;;;;0.00;0.00;;;3.20;78.00;;;;;;5006710;28;20033;-64
2024/01/21 08:15:52;;;;;;;0.00;0.00;;;2.70;77.90;;;;;;5036255;28;20031;-62
2024/01/21 08:18:19;;;;;;;0.00;0.00;;;2.30;78.10;;;;;;5007809;28;20025;-61
2024/01/21 08:20:46;;;;;;;0.13;0.13;;;2.00;79.80;;;;;;5004664;28;20022;-62
2024/01/21 08:23:12;;;;;;;0.00;0.00;;;1.80;77.90;;;;;;5005953;28;20021;-63
2024/01/21 08:25:37;;;;;;;0.00;0.00;;;1.80;79.10;;;;;;5005810;28;20091;-63
2024/01/21 08:28:03;;;;;;;0.00;0.00;;;2.30;78.70;;;;;;5005833;28;21190;-63
2024/01/21 08:30:30;;;;;;;0.00;0.00;;;2.90;75.80;;;;;;5009257;28;20497;-64
2024/01/21 08:32:56;;;;;;;0.00;0.00;;;4.00;74.00;;;;;;5005449;28;20029;-63
2024/01/21 08:35:21;;;;;;;0.00;0.00;;;5.50;84.50;;;;;;5009083;28;20693;-64
2024/01/21 08:37:48;;;;;;;0.00;0.00;;;6.30;69.00;;;;;;5003088;28;20018;-63
2024/01/21 08:40:14;;;;;;;0.00;0.00;;;7.00;67.10;;;;;;4993637;28;20529;-66
2024/01/21 08:42:40;;;;;;;0.00;0.00;;;7.10;66.70;;;;;;5002074;28;20045;-66
2024/01/21 08:45:06;;;;;;;0.00;0.00;;;8.40;64.60;;;;;;4995748;28;20485;-74
2024/01/21 08:47:33;;;;;;;0.52;0.52;;;9.60;62.20;;;;;;4998973;28;20405;-66
2024/01/21 08:49:59;;;;;;;0.00;0.00;;;10.80;61.30;;;;;;4998410;28;20144;-66
2024/01/21 08:52:24;;;;;;;0.00;0.00;;;10.90;59.30;;;;;;4994921;28;20025;-66
2024/01/21 08:54:50;;;;;;;0.00;0.00;;;10.60;59.70;;;;;;4998534;28;20068;-66
2024/01/21 08:57:16;;;;;;;0.00;0.00;;;12.70;56.50;;;;;;4996524;28;20053;-65
2024/01/21 08:59:41;;;;;;;0.00;0.00;;;11.50;56.60;;;;;;4999187;28;20264;-66
2024/01/21 09:02:07;;;;;;;0.00;0.00;;;12.60;55.30;;;;;;4999012;28;20017;-66
2024/01/21 09:04:33;;;;;;;2.50;0.67;;;12.30;55.30;;;;;;4994233;28;20072;-65
2024/01/21 09:06:58;;;;;;;0.00;0.00;;;11.30;55.10;;;;;;4998119;28;20035;-66
2024/01/21 09:09:24;;;;;;;0.00;0.00;;;12.00;55.10;;;;;;4995231;28;20018;-66
2024/01/21 09:11:51;;;;;;;0.00;0.00;;;12.70;52.70;;;;;;5000301;28;20018;-67
2024/01/21 09:14:18;;;;;;;0.00;0.00;;;13.40;49.20;;;;;;4996054;28;20079;-67
2024/01/21 09:16:43;;;;;;;0.00;0.00;;;13.90;49.50;;;;;;4999829;28;20053;-67
2024/01/21 09:19:11;;;;;;;0.00;0.00;;;15.40;47.60;;;;;;4999232;28;20549;-66
2024/01/21 09:21:36;;;;;;;0.00;0.00;;;15.90;46.40;;;;;;5013337;28;20045;-65
2024/01/21 09:24:04;;;;;;;0.00;0.00;;;15.00;45.70;;;;;;4998458;28;20060;-65
2024/01/21 09:26:30;;;;;;;0.00;0.00;;;16.60;44.30;;;;;;4994676;28;20041;-65
2024/01/21 09:28:56;;;;;;;;;;;16.50;43.30;;;;;;4998268;28;20413;-65
2024/01/21 09:31:22;;;;;;;0.00;0.00;;;15.40;44.50;;;;;;4997395;28;19912;-62
2024/01/21 09:33:47;;;;;;;0.00;0.00;;;16.40;45.10;;;;;;4992866;28;20169;-64
2024/01/21 09:36:15;;;;;;;0.00;0.00;;;16.60;43.90;;;;;;5000366;28;20053;-62
2024/01/21 09:38:41;;;;;;;0.00;0.00;;;16.90;43.60;;;;;;4998661;28;20622;-62
2024/01/21 09:41:17;;;;;;;;;;;15.20;43.00;;;;;;4996617;28;20018;-62
2024/01/21 09:43:43;;;;;;;0.00;0.00;;;14.80;43.80;;;;;;4997599;28;19950;-62
2024/01/21 09:46:12;;;;;;;0.00;0.00;;;16.00;44.40;;;;;;4997906;28;20026;-63
2024/01/21 09:48:38;;;;;;;0.00;0.00;;;16.90;43.80;;;;;;4999170;28;20018;-63
2024/01/21 09:51:06;;;;;;;0.00;0.00;;;17.90;42.10;;;;;;4998164;28;20083;-63
2024/01/21 09:53:32;;;;;;;0.00;0.00;;;18.10;41.20;;;;;;5009344;28;20424;-59
2024/01/21 09:56:05;;;;;;;0.00;0.00;;;18.30;41.70;;;;;;4999117;28;20052;-64
2024/01/21 09:58:33;;;;;;;0.00;0.00;;;17.90;41.70;;;;;;4997113;28;20032;-61
2024/01/21 10:00:59;;;;;;;0.00;0.00;;;18.30;41.90;;;;;;4999262;28;20038;-61
2024/01/21 10:03:25;;;;;;;0.00;0.00;;;17.40;41.60;;;;;;4992680;28;20041;-62
2024/01/21 10:05:51;;;;;;;0.00;0.00;;;18.20;41.70;;;;;;5001038;28;20026;-61
2024/01/21 10:08:16;;;;;;;0.03;0.03;;;17.50;41.60;;;;;;4994033;28;20057;-61
2024/01/21 10:10:43;;;;;;;0.00;0.00;;;16.40;41.40;;;;;;5000499;28;20026;-63
2024/01/21 10:13:09;;;;;;;0.00;0.00;;;16.30;42.50;;;;;;4996877;28;20018;-62
2024/01/21 10:15:35;;;;;;;0.00;0.00;;;16.10;43.30;;;;;;4998407;28;20512;-61
2024/01/21 10:18:00;;;;;;;0.00;0.00;;;16.40;42.90;;;;;;5019022;28;20051;-62
2024/01/21 10:20:27;;;;;;;0.00;0.00;;;17.00;42.70;;;;;;4996910;28;20442;-63
2024/01/21 10:22:52;;;;;;;0.00;0.00;;;17.70;41.70;;;;;;4993812;28;20267;-63
2024/01/21 10:25:21;;;;;;;0.00;0.00;;;18.00;41.00;;;;;;4997312;28;20041;-63
2024/01/21 10:27:52;;;;;;;0.10;0.10;;;18.10;41.40;;;;;;4993964;28;20014;-63
2024/01/21 10:30:18;;;;;;;0.00;0.00;;;17.60;40.50;;;;;;4995534;28;20025;-62
2024/01/21 10:32:44;;;;;;;0.00;0.00;;;17.70;40.80;;;;;;5013064;28;20088;-64
2024/01/21 10:35:09;;;;;;;0.00;0.00;;;18.70;41.40;;;;;;4996290;28;20037;-62
2024/01/21 10:37:39;;;;;;;0.00;0.00;;;18.40;39.50;;;;;;4998668;28;20029;-62
2024/01/21 10:40:07;;;;;;;0.00;0.00;;;17.10;40.80;;;;;;4998314;28;20704;-63
2024/01/21 10:42:34;;;;;;;0.00;0.00;;;17.50;40.60;;;;;;4996329;28;20599;-64
2024/01/21 10:45:01;;;;;;;0.00;0.00;;;18.50;40.70;;;;;;4996659;28;20062;-64
2024/01/21 10:47:29;;;;;;;0.00;0.00;;;19.30;39.50;;;;;;4996898;28;20537;-65
2024/01/21 10:49:55;;;;;;;0.25;0.25;;;19.30;39.10;;;;;;4994319;28;20176;-65
2024/01/21 10:52:21;;;;;;;0.00;0.00;;;19.80;38.70;;;;;;4996544;28;20504;-65
2024/01/21 10:54:49;;;;;;;0.00;0.00;;;20.90;38.60;;;;;;4999535;28;20033;-64
2024/01/21 10:57:15;;;;;;;0.00;0.00;;;19.80;38.50;;;;;;4999318;28;20037;-65
2024/01/21 10:59:42;;;;;;;0.00;0.00;;;20.50;38.30;;;;;;4998876;28;20032;-65
2024/01/21 11:02:08;;;;;;;;;;;19.90;38.90;;;;;;5000128;28;20488;-67
2024/01/21 11:04:34;;;;;;;0.00;0.00;;;21.70;38.80;;;;;;4996334;28;19914;-67
2024/01/21 11:07:03;;;;;;;0.00;0.00;;;20.20;39.50;;;;;;4994515;28;20394;-66
2024/01/21 11:09:32;;;;;;;0.00;0.00;;;19.00;39.80;;;;;;4997389;28;20041;-64
2024/01/21 11:11:58;;;;;;;0.00;0.00;;;17.30;40.90;;;;;;4998228;28;20029;-64
2024/01/21 11:14:38;;;;;;;0.00;0.00;;;15.50;43.10;;;;;;4996053;28;20026;-64
2024/01/21 11:17:10;;;;;;;0.20;0.20;;;12.00;44.50;;;;;;4997926;28;20022;-62
2024/01/21 11:19:48;;;;;;;0.00;0.00;;;8.80;48.50;;;;;;4993010;28;20180;-63
2024/01/21 11:22:14;;;;;;;0.20;0.20;;;7.30;51.70;;;;;;4991686;28;20022;-64
2024/01/21 11:24:43;;;;;;;;;;;6.50;52.20;;;;;;4996972;28;20033;-63
2024/01/21 11:27:28;;;;;;;0.00;0.00;;;5.90;53.50;;;;;;4998420;28;19920;-63
2024/01/21 11:29:58;;;;;;;0.00;0.00;;;5.70;54.40;;;;;;5006702;28;20101;-63
2024/01/21 11:32:26;;;;;;;0.10;0.10;;;5.70;54.80;;;;;;4997419;28;20054;-63
2024/01/21 11:34:53;;;;;;;0.00;0.00;;;5.70;55.20;;;;;;4992858;28;20532;-62
2024/01/21 11:37:18;;;;;;;;;;;5.40;56.40;;;;;;4997516;28;20030;-63
2024/01/21 11:39:45;;;;;;;0.00;0.00;;;5.20;56.60;;;;;;4996938;28;20316;-62
2024/01/21 11:42:11;;;;;;;0.00;0.00;;;5.20;57.50;;;;;;4995081;28;20056;-63
2024/01/21 11:44:38;;;;;;;0.00;0.00;;;5.20;57.40;;;;;;4993978;28;20041;-62
2024/01/21 11:47:05;;;;;;;0.00;0.00;;;5.30;57.50;;;;;;4996011;28;20096;-62
2024/01/21 11:49:31;;;;;;;;;;;5.20;57.80;;;;;;4993990;28;20029;-62
2024/01/21 11:51:59;;;;;;;0.00;0.00;;;5.00;58.80;;;;;;5001150;28;19952;-62
2024/01/21 11:54:25;;;;;;;0.10;0.10;;;4.90;59.50;;;;;;4993624;28;20026;-62
2024/01/21 11:56:52;;;;;;;0.00;0.00;;;5.00;60.00;;;;;;5016387;28;20300;-62
2024/01/21 11:59:19;;;;;;;0.10;0.10;;;5.10;60.40;;;;;;5000748;28;20088;-63
2024/01/21 12:01:45;;;;;;;0.00;0.00;;;5.10;60.60;;;;;;4997426;28;20469;-63
2024/01/21 12:04:11;;;;;;;0.00;0.00;;;5.20;60.30;;;;;;5001782;28;20034;-62
2024/01/21 12:06:45;;;;;;;0.00;0.00;;;5.30;60.70;;;;;;5000137;28;20034;-63
2024/01/21 12:09:12;;;;;;;0.00;0.00;;;5.50;60.70;;;;;;4998755;28;20029;-62
2024/01/21 12:11:39;;;;;;;0.00;0.00;;;5.70;60.20;;;;;;5009716;28;20018;-63
2024/01/21 12:14:14;;;;;;;0.00;0.00;;;5.60;59.50;;;;;;5024521;28;20605;-63
2024/01/21 12:16:41;;;;;;;0.00;0.00;;;5.30;59.80;;;;;;5007272;28;20029;-62
2024/01/21 12:19:09;;;;;;;0.00;0.00;;;5.20;60.10;;;;;;4998173;28;20380;-63
2024/01/21 12:21:35;;;;;;;0.10;0.05;;;4.90;60.20;;;;;;5003935;28;20062;-62
2024/01/21 12:24:05;;;;;;;0.00;0.00;;;4.70;60.70;;;;;;4995136;28;20119;-62
2024/01/21 12:26:31;;;;;;;0.00;0.00;;;4.70;61.30;;;;;;5000039;28;20453;-62
2024/01/21 12:29:04;;;;;;;0.00;0.00;;;4.80;62.00;;;;;;4994870;28;20483;-63
2024/01/21 12:31:32;;;;;;;0.00;0.00;;;5.00;61.90;;;;;;5000640;28;20477;-63
2024/01/21 12:34:03;;;;;;;0.00;0.00;;;5.10;61.80;;;;;;4996813;28;20276;-63
2024/01/21 12:36:33;;;;;;;0.00;0.00;;;5.20;61.80;;;;;;4998757;28;20044;-63
2024/01/21 12:39:00;;;;;;;0.65;0.43;;;5.20;62.10;;;;;;4999276;28;20099;-63
2024/01/21 12:41:26;;;;;;;0.00;0.00;;;4.90;62.60;;;;;;4997133;28;20105;-63
2024/01/21 12:43:52;;;;;;;0.00;0.00;;;4.60;63.30;;;;;;5000533;28;20144;-63
2024/01/21 12:46:19;;;;;;;0.00;0.00;;;4.70;64.00;;;;;;5008723;28;20540;-64
2024/01/21 12:48:49;;;;;;;0.00;0.00;;;4.80;63.80;;;;;;4997791;28;20041;-64